Latest METARs, TAFs and NOTAMs for MROC


---------------------------------------------------------------------------
	(OBSERVATIONS)
MROC 221200Z 10004KT 070V140 CAVOK 20/19 A2997 NOSIG=
MROC 221100Z 06003KT 020V140 CAVOK 20/19 A2995 NOSIG=
MROC 221000Z 06005KT CAVOK 20/19 A2994 NOSIG=
---------------------------------------------------------------------------
	(TERMINAL AREA FORECAST)
MROC 221100Z 2212/2312 06007KT 9999 FEW035
    TX28/2217Z TN19/2310Z
    BECMG 2215/2217 25010KT
    TEMPO 2219/2223 5000 TSRA SCT015CB BKN025=
---------------------------------------------------------------------------
	(NOTAMS)


MROC A1116/16 RNAV1 GNSS RWY 07 COCOS 7 PROCEDURE OC202 CORRECT
    ALT IS 6520FT. 23 JUN 00:00 2016 UNTIL PERM. CREATED: 21
    JUN 21:06 2016

MROC A1475/16 SID RNAV1 COCOS 7 GNSS RWY 07, LIB TRANSITION L2
    FM OC212 TO LIB VOR COURSE MAGNETIC CORRECT 277.28 DEG. REF
    AIRAC SUP A07/16. 11 AUG 20:05 2016 UNTIL PERM. CREATED:
    11 AUG 20:05 2016

MROC A1524/17 FIC COCO RADIO FREQ 126.8MHZ U/S. 01 SEP 12:00
    2017 UNTIL 31 OCT 23:59 2017. CREATED: 25 AUG 00:39 2017

MROC A1572/16 VMC PROCEDURE AIRSPACE C REF COSTA RICA AIP PAGE
    MROC AD 2.23 CNL. 25 AUG 01:54 2016 UNTIL PERM. CREATED:
    25 AUG 01:55 2016

MROC A1577/17 ACC COCO CONTROL FREQ 119.6MHZ OPR 60NM BTN RDL130
    AND RDL200 FM 7500FT BTN RDL200 AND RDL360 FM 5500FT TO 12000FT.
    5500FT AMSL - 12000FT AMSL, 01 SEP 12:00 2017 UNTIL 31 OCT
    23:59 2017. CREATED: 30 AUG 19:03 2017

MROC A1578/17 COCO CLEARANCE DELIVERY FREQ 121.3MHZ U/S. 01 SEP
    12:00 2017 UNTIL 30 NOV 23:59 2017. CREATED: 30 AUG 20:01
    2017

MROC A1668/17 ACFT STAND 17 MAIN APRON CLSD. 11 SEP 14:00 2017
    UNTIL 11 DEC 14:00 2017. CREATED: 10 SEP 05:44 2017

MROC A1698/17 OBST ERECTED CRANE OF 52M HGT AT NORTH WEST OF
    TWR CENTERED COORD 095953N 08412258W. 14 SEP 03:45 2017 UNTIL
    17 DEC 23:59 2017. CREATED: 14 SEP 03:51 2017

MROC A1809/17 SJO PSR U/S. 02 OCT 00:17 2017 UNTIL 31 OCT 23:59
    2017. CREATED: 02 OCT 00:17 2017

MROC A1815/17 SEQUENCED FLG LGT RWY 07 U/S. 04 OCT 00:01 2017
    UNTIL 04 JAN 23:59 2018. CREATED: 02 OCT 22:25 2017

MROC A1818/17 RWY 25 CTN TURNING BAY WO GUIDE LINE. 03 OCT 01:00
    2017 UNTIL 24 OCT 23:59 2017. CREATED: 03 OCT 00:57 2017

MROC A1908/17 RWY 25 N SIDE CTN ADVISED DUE TO WIP. 20 OCT 12:00
    2017 UNTIL 25 OCT 23:59 2017. CREATED: 19 OCT 17:50 2017

MROC A1912/17 ACFT STAND NR16 MAIN APRON CLSD. 23 OCT 00:00 2017
    UNTIL 28 OCT 12:00 2017. CREATED: 20 OCT 06:27 2017

MROC A1913/17 TWY A FM TWY D TIL 50M E TWY E NOT AVBL TO ACFT
    WITH WINGSPAN GREATER THAN 36M. 23 OCT 11:00 2017 UNTIL 28
    OCT 11:00 2017. CREATED: 20 OCT 06:49 2017

MROC A1914/17 TWY A FM TWY D 65M W TIL 370M E TWY E CTN ADVISED
    DUE TO WIP. 23 OCT 11:00 2017 UNTIL 28 OCT 11:00 2017. CREATED:
    20 OCT 06:49 2017

MROC A1915/17 TWY A FM TWY D TIL 50M E TWY E CLSD. 23 OCT 00:00
    2017 UNTIL 23 OCT 11:00 2017. CREATED: 20 OCT 06:49 2017

MROC A1916/17 TWY D CLSD. 23 OCT 00:00 2017 UNTIL 23 OCT 11:00
    2017. CREATED: 20 OCT 06:50 2017

MROC A1920/17 TWY A,B,C,D,E,F,G CTN ADVISED TO WIP. 27 NOV 11:00
    2017 UNTIL 29 NOV 23:59 2017. CREATED: 20 OCT 08:07 2017

MROC A1922/17 RWY 07/25 OPR BUT CTN ADVISED TO WIP. 27 NOV 11:00
    2017 UNTIL 29 NOV 23:59 2017. CREATED: 20 OCT 08:07 2017

MROC A1971/16 SID RNAV1 COCOS 7 GNSS RWY 07, LIB TRANSITION L
    CNL, REF COSTA RICA AIRAC SUP A07/16 ) DUPE. 23 OCT 15:13
    2016 UNTIL PERM. CREATED: 01 NOV 10:18 2016

MROC C0293/17 CORREDOR VISUAL LA PALMA SE CORRIGEN LAS COORDENADAS
    DEL PUNTO PIEDA :095848N 0840224W.REF.SUP C27/16. 18 JUL
    21:58 2017 UNTIL PERM. CREATED: 18 JUL 21:59 2017

---------------------------------------------------------------------------